Time;durP1;ratioP1;P1;durP2;ratioP2;P2;SDS_P1;SDS_P2;PMS_P1;PMS_P2;Temp;Humidity;BMP_temperature;BMP_pressure;BME280_temperature;BME280_humidity;BME280_pressure;Samples;Min_cycle;Max_cycle;Signal;HPM_P1;HPM_P2
2022/01/01 00:01:22;;;;;;;14.32;2.50;;;;;;;21.49;58.10;99783.06;7314220;19;157683;-36
2022/01/01 00:03:47;;;;;;;20.63;3.67;;;;;;;21.47;57.66;99774.53;7314776;19;158329;-38
2022/01/01 00:06:13;;;;;;;23.58;3.63;;;;;;;21.44;57.76;99774.81;7315235;19;154433;-35
2022/01/01 00:08:38;;;;;;;7.85;1.95;;;;;;;21.42;57.78;99776.72;7314201;19;153843;-36
2022/01/01 00:11:03;;;;;;;17.00;2.37;;;;;;;21.44;57.66;99780.03;7313939;19;158960;-38
2022/01/01 00:13:28;;;;;;;10.13;1.77;;;;;;;21.44;57.84;99780.03;7314154;19;158283;-37
2022/01/01 00:15:54;;;;;;;15.80;2.83;;;;;;;21.45;57.65;99773.81;7314205;19;154555;-38
2022/01/01 00:18:19;;;;;;;17.07;2.77;;;;;;;21.46;57.50;99778.13;7313447;19;154098;-38
2022/01/01 00:20:44;;;;;;;15.60;2.83;;;;;;;21.45;57.74;99776.44;7317010;19;158067;-38
2022/01/01 00:23:09;;;;;;;16.90;2.60;;;;;;;21.43;58.01;99775.78;7314420;19;158796;-37
2022/01/01 00:25:35;;;;;;;19.00;2.67;;;;;;;21.47;57.91;99776.34;7312049;19;154926;-40
2022/01/01 00:28:00;;;;;;;17.30;2.53;;;;;;;21.47;57.49;99779.75;7314545;19;140868;-39
2022/01/01 00:30:25;;;;;;;10.00;1.65;;;;;;;21.44;57.80;99780.03;7310390;19;157972;-38
2022/01/01 00:32:50;;;;;;;12.50;2.13;;;;;;;21.46;57.98;99778.13;7312451;19;158284;-38
2022/01/01 00:35:16;;;;;;;10.85;2.40;;;;;;;21.46;57.46;99778.13;7311459;19;155560;-39
2022/01/01 00:37:41;;;;;;;13.00;2.50;;;;;;;21.43;58.31;99783.63;7312449;19;153444;-40
2022/01/01 00:40:07;;;;;;;15.13;2.50;;;;;;;21.41;58.05;99785.53;7310066;19;159080;-39
2022/01/01 00:42:32;;;;;;;10.25;1.75;;;;;;;21.45;57.99;99781.69;7313694;19;129724;-36
2022/01/01 00:44:57;;;;;;;11.30;2.07;;;;;;;21.43;57.84;99786.25;7311210;19;154302;-30
2022/01/01 00:47:22;;;;;;;10.87;1.80;;;;;;;21.45;58.15;99792.13;7312382;19;154134;-37
2022/01/01 00:49:48;;;;;;;19.75;3.33;;;;;;;21.42;58.56;99786.38;7310474;19;130064;-35
2022/01/01 00:52:13;;;;;;;17.23;2.80;;;;;;;21.49;57.78;99792.69;7312402;19;130368;-35
2022/01/01 00:54:38;;;;;;;7.10;1.45;;;;;;;21.44;58.17;99795.72;7311659;19;129661;-38
2022/01/01 00:57:04;;;;;;;12.48;2.08;;;;;;;21.34;58.07;99778.34;7312653;19;128872;-35
2022/01/01 00:59:30;;;;;;;18.00;2.65;;;;;;;21.32;57.64;99785.50;7309113;19;129271;-39
2022/01/01 01:01:57;;;;;;;12.70;2.00;;;;;;;21.44;58.02;99810.59;7310868;19;130784;-34
2022/01/01 01:04:22;;;;;;;;;;;;;;;21.36;58.93;99798.19;7307545;19;129502;-32
2022/01/01 01:06:47;;;;;;;12.87;2.33;;;;;;;21.39;58.09;99813.59;7312222;19;128933;-32
2022/01/01 01:09:13;;;;;;;14.10;2.22;;;;;;;21.33;58.34;99800.22;7309887;19;143725;-33
2022/01/01 01:11:44;;;;;;;19.63;2.97;;;;;;;21.41;57.62;99813.47;7309148;19;129253;-37
2022/01/01 01:14:18;;;;;;;12.07;2.13;;;;;;;21.44;57.45;99827.13;7311490;19;129018;-33
2022/01/01 01:16:44;;;;;;;10.07;2.08;;;;;;;21.41;57.69;99832.63;7312679;19;129160;-36
2022/01/01 01:19:09;;;;;;;19.92;3.00;;;;;;;21.37;57.61;99814.72;7310598;19;129893;-37
2022/01/01 01:21:34;;;;;;;6.32;1.50;;;;;;;21.46;57.60;99825.19;7310689;19;158450;-38
2022/01/01 01:24:01;;;;;;;16.95;2.60;;;;;;;21.49;58.13;99827.53;7309971;19;154799;-37
2022/01/01 01:26:28;;;;;;;10.07;1.55;;;;;;;21.46;57.42;99819.97;7312608;19;129402;-36
2022/01/01 01:28:53;;;;;;;14.82;2.40;;;;;;;21.44;58.11;99824.50;7310566;19;129423;-39
2022/01/01 01:31:19;;;;;;;12.43;2.13;;;;;;;21.42;58.18;99831.66;7308391;19;145896;-35
2022/01/01 01:33:44;;;;;;;14.35;2.72;;;;;;;21.42;57.96;99831.66;7311726;19;129147;-38
2022/01/01 01:36:10;;;;;;;15.95;2.50;;;;;;;21.43;57.97;99829.88;7310243;19;153726;-37
2022/01/01 01:38:36;;;;;;;13.70;2.17;;;;;;;21.45;58.03;99839.22;7311634;19;130352;-36
2022/01/01 01:41:06;;;;;;;19.33;2.40;;;;;;;21.47;57.62;99842.53;7312189;19;129253;-39
2022/01/01 01:43:32;;;;;;;11.75;1.85;;;;;;;21.46;58.19;99851.34;7312353;19;129043;-33
2022/01/01 01:46:02;;;;;;;13.50;2.25;;;;;;;21.40;58.32;99851.88;7311117;19;129299;-36
2022/01/01 01:48:28;;;;;;;6.57;1.27;;;;;;;21.44;58.02;99858.50;7312182;19;130289;-32
2022/01/01 01:50:55;;;;;;;11.35;2.13;;;;;;;21.39;58.16;99860.69;7308485;19;142954;-35
2022/01/01 01:53:20;;;;;;;10.35;1.80;;;;;;;21.37;57.87;99846.91;7311046;19;128996;-33
2022/01/01 01:55:46;;;;;;;20.05;3.30;;;;;;;21.42;58.25;99852.56;7309040;19;154012;-31
2022/01/01 01:58:11;;;;;;;17.90;2.78;;;;;;;21.30;58.42;99835.34;7311067;19;130290;-36
2022/01/01 02:01:10;;;;;;;15.02;2.80;;;;;;;21.40;58.05;99846.63;7309102;19;158698;-40
2022/01/01 02:03:33;;;;;;;9.68;1.83;;;;;;;21.46;57.77;99848.75;7307811;19;128878;-37
2022/01/01 02:05:59;;;;;;;13.50;1.92;;;;;;;21.43;57.80;99858.63;7309472;19;153835;-36
2022/01/01 02:08:26;;;;;;;11.80;1.80;;;;;;;21.44;57.96;99852.44;7311072;19;129108;-39
2022/01/01 02:10:52;;;;;;;14.45;2.38;;;;;;;21.37;58.47;99862.59;7308921;19;129183;-39
2022/01/01 02:13:25;;;;;;;11.18;2.03;;;;;;;21.37;58.37;99865.22;7309894;19;130842;-36
2022/01/01 02:18:17;;;;;;;11.15;1.95;;;;;;;21.31;58.60;99863.13;7310813;19;129138;-30
2022/01/01 02:20:49;;;;;;;14.30;2.65;;;;;;;21.30;59.08;99866.72;7311219;19;130770;-34
2022/01/01 02:23:15;;;;;;;21.27;3.20;;;;;;;21.30;58.01;99879.78;7309796;19;129574;-34
2022/01/01 02:25:41;;;;;;;21.63;3.63;;;;;;;21.33;58.44;99866.44;7310382;19;130400;-36
2022/01/01 02:28:07;;;;;;;18.13;2.67;;;;;;;21.36;58.00;99881.88;7310643;19;130630;-34
2022/01/01 02:30:32;;;;;;;9.57;1.67;;;;;;;21.36;58.09;99881.03;7309459;19;129754;-37
2022/01/01 02:32:58;;;;;;;5.93;1.23;;;;;;;21.36;58.31;99874.03;7309060;19;154724;-37
2022/01/01 02:35:24;;;;;;;10.20;1.73;;;;;;;21.37;58.61;99875.69;7309498;19;129592;-37
2022/01/01 02:37:49;;;;;;;17.33;2.88;;;;;;;21.35;58.77;99880.22;7309849;19;129702;-32
2022/01/01 02:40:15;;;;;;;15.30;2.72;;;;;;;21.31;58.84;99888.44;7306490;19;130125;-32
2022/01/01 02:42:42;;;;;;;14.75;2.80;;;;;;;21.23;58.46;99883.03;7309136;19;129003;-35
2022/01/01 02:45:10;;;;;;;18.38;2.83;;;;;;;21.26;58.60;99891.47;7309804;19;129240;-33
2022/01/01 02:47:35;;;;;;;6.53;1.48;;;;;;;21.31;58.65;99899.75;7310007;19;130674;-33
2022/01/01 02:50:02;;;;;;;16.55;2.28;;;;;;;21.35;58.22;99909.00;7307954;19;129605;-33
2022/01/01 02:52:28;;;;;;;;;;;;;;;21.32;59.51;99904.00;7310619;19;129239;-31
2022/01/01 02:54:53;;;;;;;15.35;2.70;;;;;;;21.31;58.27;99904.97;7310373;19;129629;-33
2022/01/01 02:57:18;;;;;;;4.88;1.25;;;;;;;21.24;58.41;99893.38;7308679;19;158648;-37
2022/01/01 02:59:43;;;;;;;16.58;2.85;;;;;;;21.31;58.33;99910.22;7305903;19;158641;-35
2022/01/01 03:02:09;;;;;;;24.83;3.53;;;;;;;21.39;58.05;99918.22;7310187;19;130563;-34
2022/01/01 03:04:34;;;;;;;12.52;1.98;;;;;;;21.36;58.51;99921.09;7307316;19;144300;-33
2022/01/01 03:07:00;;;;;;;12.68;1.77;;;;;;;21.33;58.68;99918.75;7309868;19;130728;-32
2022/01/01 03:09:33;;;;;;;11.93;2.25;;;;;;;21.33;58.24;99920.53;7308140;19;130990;-33
2022/01/01 03:11:58;;;;;;;12.20;2.15;;;;;;;21.33;58.57;99918.75;7309763;19;129609;-31
2022/01/01 03:14:23;;;;;;;9.80;2.05;;;;;;;21.29;58.67;99919.13;7307524;19;152863;-33
2022/01/01 03:16:49;;;;;;;15.05;2.55;;;;;;;21.37;58.09;99925.38;7315648;19;157514;-34
2022/01/01 03:19:14;;;;;;;5.68;1.25;;;;;;;21.32;58.41;99917.09;7314470;19;131282;-32
2022/01/01 03:21:40;;;;;;;11.85;2.20;;;;;;;21.36;57.92;99918.50;7315530;19;128908;-34
2022/01/01 03:24:06;;;;;;;15.85;2.67;;;;;;;21.32;58.48;99924.94;7314557;19;129516;-38
2022/01/01 03:26:31;;;;;;;9.73;1.93;;;;;;;21.31;57.76;99920.66;7315535;19;130255;-37
2022/01/01 03:28:56;;;;;;;11.13;1.80;;;;;;;21.28;58.60;99915.69;7315045;19;129238;-34
2022/01/01 03:31:24;;;;;;;13.23;2.03;;;;;;;21.35;58.65;99914.22;7313610;19;129322;-34
2022/01/01 03:33:49;;;;;;;21.80;4.13;;;;;;;21.32;58.69;99916.28;7314790;19;129486;-36
2022/01/01 03:36:15;;;;;;;13.50;2.47;;;;;;;21.35;58.51;99922.06;7314608;19;157572;-36
2022/01/01 03:38:40;;;;;;;19.23;3.38;;;;;;;21.32;57.90;99924.13;7312956;19;157973;-35
2022/01/01 03:41:05;;;;;;;18.17;2.97;;;;;;;21.32;58.77;99914.47;7314384;19;154813;-33
2022/01/01 03:43:30;;;;;;;4.82;1.27;;;;;;;21.39;58.50;99917.38;7313788;19;154900;-35
2022/01/01 03:45:56;;;;;;;12.77;1.90;;;;;;;21.34;58.67;99925.63;7313810;19;157964;-37
2022/01/01 03:48:21;;;;;;;8.70;1.47;;;;;;;21.36;58.16;99922.88;7313370;19;158409;-36
2022/01/01 03:50:46;;;;;;;19.50;3.07;;;;;;;21.37;58.17;99924.56;7312658;19;148067;-35
2022/01/01 03:53:11;;;;;;;18.63;3.33;;;;;;;21.38;58.17;99931.44;7314558;19;130112;-30
2022/01/01 03:55:37;;;;;;;10.18;1.63;;;;;;;21.26;57.44;99928.06;7314010;19;129522;-35
2022/01/01 03:58:02;;;;;;;15.10;2.13;;;;;;;21.16;58.06;99926.34;7315013;19;136570;-39
2022/01/01 04:00:27;;;;;;;12.68;1.83;;;;;;;21.22;57.78;99939.72;7314208;19;135786;-35
2022/01/01 04:02:53;;;;;;;18.83;3.10;;;;;;;21.32;57.67;99937.19;7314442;19;129414;-32
2022/01/01 04:05:18;;;;;;;7.97;1.55;;;;;;;21.44;56.91;99952.66;7314686;19;129093;-39
2022/01/01 04:07:44;;;;;;;15.88;2.92;;;;;;;21.57;56.61;99945.44;7314626;19;129886;-35
2022/01/01 04:10:09;;;;;;;17.65;2.80;;;;;;;21.70;56.29;99942.63;7313475;19;129957;-32
2022/01/01 04:12:35;;;;;;;14.65;2.83;;;;;;;21.83;55.71;99954.50;7314060;19;129352;-36
2022/01/01 04:15:02;;;;;;;16.30;2.45;;;;;;;21.90;55.37;99937.31;7313293;19;129687;-31
2022/01/01 04:17:27;;;;;;;;;;;;;;;21.95;55.90;99947.38;7315430;19;132673;-34
2022/01/01 04:19:52;;;;;;;12.85;2.08;;;;;;;22.07;55.33;99946.34;7311009;19;129261;-36
2022/01/01 04:22:18;;;;;;;9.15;1.90;;;;;;;22.14;55.40;99941.38;7313033;19;129132;-32
2022/01/01 04:24:43;;;;;;;19.70;2.95;;;;;;;22.20;55.06;99930.34;7312146;19;129696;-35
2022/01/01 04:27:09;;;;;;;15.20;2.33;;;;;;;22.27;54.45;99942.78;7310610;19;159104;-32
2022/01/01 04:29:34;;;;;;;6.65;1.42;;;;;;;22.32;54.51;99939.75;7311029;19;142228;-35
2022/01/01 04:32:00;;;;;;;14.02;2.13;;;;;;;22.25;54.52;99928.16;7314375;19;128973;-37
2022/01/01 04:34:26;;;;;;;9.57;1.47;;;;;;;22.35;54.49;99944.72;7312678;19;129765;-31
2022/01/01 04:37:05;;;;;;;17.50;2.97;;;;;;;22.28;54.30;99939.19;7312734;19;129750;-32
2022/01/01 04:39:30;;;;;;;11.93;1.75;;;;;;;22.24;54.80;99942.22;7312715;19;129902;-35
2022/01/01 04:41:56;;;;;;;12.35;1.95;;;;;;;22.24;55.02;99942.22;7313033;19;129770;-33
2022/01/01 04:44:21;;;;;;;12.75;2.22;;;;;;;22.20;54.96;99951.31;7312593;19;129926;-38
2022/01/01 04:46:47;;;;;;;15.88;2.50;;;;;;;22.09;55.15;99943.56;7311562;19;158851;-32
2022/01/01 04:49:12;;;;;;;14.55;2.47;;;;;;;22.11;55.46;99952.97;7309744;19;155770;-34
2022/01/01 04:51:37;;;;;;;15.55;2.75;;;;;;;21.98;55.59;99947.97;7310271;19;130327;-34
2022/01/01 04:54:02;;;;;;;15.43;2.38;;;;;;;22.00;55.95;99960.91;7312135;19;129924;-33
2022/01/01 04:56:30;;;;;;;7.22;1.27;;;;;;;21.95;56.16;99961.31;7312941;19;129378;-36
2022/01/01 04:58:56;;;;;;;15.65;2.85;;;;;;;21.89;56.20;99964.47;7311831;19;128825;-37
2022/01/01 05:01:21;;;;;;;13.50;2.23;;;;;;;21.88;55.76;99959.38;7313484;19;129205;-34
2022/01/01 05:03:47;;;;;;;17.15;2.85;;;;;;;21.85;56.02;99978.78;7311903;19;130271;-35
2022/01/01 05:06:12;;;;;;;11.73;2.05;;;;;;;21.78;56.62;99969.78;7312983;19;129119;-33
2022/01/01 05:08:38;;;;;;;18.10;3.08;;;;;;;21.70;55.97;99947.84;7308832;19;154506;-33
2022/01/01 05:11:03;;;;;;;16.42;2.30;;;;;;;21.71;56.32;99959.97;7309334;19;154718;-35
2022/01/01 05:13:29;;;;;;;3.22;0.85;;;;;;;21.65;56.93;99955.25;7311125;19;146025;-36
2022/01/01 05:15:55;;;;;;;13.35;2.10;;;;;;;21.68;56.85;99968.06;7312529;19;130317;-38
2022/01/01 05:18:22;;;;;;;11.70;2.13;;;;;;;21.66;56.57;99973.44;7311738;19;129443;-34
2022/01/01 05:20:47;;;;;;;16.87;2.83;;;;;;;21.61;56.81;99975.63;7312426;19;130122;-34
2022/01/01 05:23:12;;;;;;;22.57;3.87;;;;;;;21.58;57.09;99975.88;7309833;19;155656;-32
2022/01/01 05:25:37;;;;;;;11.35;1.95;;;;;;;21.58;56.85;99975.88;7311628;19;157250;-36
2022/01/01 05:28:03;;;;;;;15.05;2.15;;;;;;;21.54;56.84;99982.31;7310542;19;154705;-37
2022/01/01 05:30:28;;;;;;;13.23;2.17;;;;;;;21.44;56.83;99968.38;7311506;19;130470;-35
2022/01/01 05:32:53;;;;;;;10.50;1.90;;;;;;;21.52;57.37;99975.53;7310129;19;159250;-32
2022/01/01 05:35:18;;;;;;;11.20;2.00;;;;;;;21.41;57.48;99966.00;7309053;19;158495;-32
2022/01/01 05:37:44;;;;;;;13.10;2.33;;;;;;;21.50;57.01;99987.94;7309915;19;155619;-34
2022/01/01 05:40:10;;;;;;;14.95;2.45;;;;;;;21.47;57.54;99996.88;7309240;19;129163;-35
2022/01/01 05:42:35;;;;;;;14.25;2.65;;;;;;;21.43;57.56;99986.81;7311287;19;130755;-33
2022/01/01 05:45:00;;;;;;;9.83;1.63;;;;;;;21.45;57.18;99985.69;7309916;19;158535;-34
2022/01/01 05:47:25;;;;;;;11.17;1.77;;;;;;;21.44;57.81;99991.06;7309957;19;154242;-34
2022/01/01 05:49:51;;;;;;;15.90;2.73;;;;;;;21.49;58.12;99992.34;7308103;19;150035;-34
2022/01/01 05:52:16;;;;;;;12.90;2.13;;;;;;;21.49;58.72;99987.13;7309557;19;159035;-33
2022/01/01 05:54:41;;;;;;;13.40;2.15;;;;;;;21.42;57.64;99983.34;7308994;19;154527;-32
2022/01/01 05:57:06;;;;;;;17.53;2.53;;;;;;;21.45;58.24;99993.56;7310049;19;155259;-35
2022/01/01 05:59:32;;;;;;;6.05;1.08;;;;;;;21.44;57.83;99988.44;7309308;19;129421;-36
2022/01/01 06:01:57;;;;;;;13.93;2.17;;;;;;;21.40;58.12;99980.03;7309645;19;158484;-34
2022/01/01 06:04:22;;;;;;;10.52;1.92;;;;;;;21.49;57.84;100000.19;7309702;19;129363;-36
2022/01/01 06:06:48;;;;;;;14.07;2.72;;;;;;;21.47;58.15;99999.50;7312032;19;129027;-36
2022/01/01 06:09:13;;;;;;;12.55;1.98;;;;;;;21.44;57.46;99994.53;7308069;19;153904;-32
2022/01/01 06:11:38;;;;;;;16.85;2.58;;;;;;;21.42;57.93;99993.81;7307597;19;159040;-36
2022/01/01 06:14:03;;;;;;;14.90;2.10;;;;;;;21.42;58.53;100001.66;7308080;19;159446;-33
2022/01/01 06:16:29;;;;;;;9.75;1.67;;;;;;;21.42;57.98;99996.44;7308890;19;154595;-36
2022/01/01 06:18:54;;;;;;;15.18;2.45;;;;;;;21.41;58.50;99997.41;7308877;19;138179;-31
2022/01/01 06:21:19;;;;;;;11.70;2.08;;;;;;;21.51;58.73;100008.75;7308075;19;158452;-35
2022/01/01 06:23:45;;;;;;;10.85;2.33;;;;;;;21.41;58.50;100000.00;7308590;19;147926;-40
2022/01/01 06:26:10;;;;;;;19.13;2.92;;;;;;;21.47;58.22;100015.19;7310045;19;128900;-37
2022/01/01 06:28:35;;;;;;;9.95;1.73;;;;;;;21.46;57.75;100018.78;7309787;19;129413;-36
2022/01/01 06:31:01;;;;;;;7.32;1.50;;;;;;;21.44;58.55;100025.91;7307634;19;130975;-35
2022/01/01 06:33:26;;;;;;;12.57;1.92;;;;;;;21.36;58.75;100007.41;7307957;19;158579;-36
2022/01/01 06:35:54;;;;;;;14.68;2.40;;;;;;;21.48;57.76;100022.09;7307407;19;155064;-31
2022/01/01 06:38:19;;;;;;;11.75;1.95;;;;;;;21.51;58.70;100032.28;7308404;19;128988;-35
2022/01/01 06:40:44;;;;;;;14.02;2.60;;;;;;;21.54;59.10;100034.66;7308856;19;159192;-33
2022/01/01 06:43:12;;;;;;;16.95;2.83;;;;;;;21.53;58.08;100037.41;7309230;19;129333;-34
2022/01/01 06:45:38;;;;;;;10.27;1.75;;;;;;;21.41;58.06;100020.94;7309279;19;129183;-35
2022/01/01 06:48:04;;;;;;;25.13;3.65;;;;;;;21.59;58.45;100035.09;7306009;19;156669;-37
2022/01/01 06:50:29;;;;;;;9.57;1.85;;;;;;;21.55;58.21;100054.59;7313090;19;130277;-33
2022/01/01 06:52:54;;;;;;;11.38;2.00;;;;;;;21.57;58.15;100046.63;7315041;19;129645;-35
2022/01/01 06:55:20;;;;;;;16.88;2.60;;;;;;;21.45;57.42;100038.03;7314498;19;129201;-36
2022/01/01 06:57:46;;;;;;;22.45;3.55;;;;;;;21.53;58.31;100056.56;7314284;19;144952;-34
2022/01/01 07:00:12;;;;;;;17.40;2.80;;;;;;;21.50;58.60;100059.41;7312860;19;129210;-37
2022/01/01 07:02:42;;;;;;;13.90;2.50;;;;;;;21.50;58.50;100067.25;7313868;19;129296;-37
2022/01/01 07:05:08;;;;;;;17.73;2.67;;;;;;;21.47;58.58;100072.75;7314801;19;129633;-33
2022/01/01 07:07:34;;;;;;;11.97;2.13;;;;;;;21.51;58.39;100076.78;7313934;19;131421;-34
2022/01/01 07:09:59;;;;;;;13.93;2.25;;;;;;;21.55;57.89;100085.19;7311732;19;158763;-32
2022/01/01 07:12:24;;;;;;;18.48;3.17;;;;;;;21.48;58.73;100070.97;7311145;19;158806;-36
2022/01/01 07:14:49;;;;;;;20.08;3.58;;;;;;;21.56;58.00;100072.00;7313283;19;129636;-33
2022/01/01 07:17:15;;;;;;;12.23;2.35;;;;;;;21.48;57.98;100076.19;7312438;19;154684;-34
2022/01/01 07:19:40;;;;;;;16.05;2.55;;;;;;;21.44;58.23;100086.06;7312821;19;130092;-37
2022/01/01 07:22:05;;;;;;;23.48;3.00;;;;;;;21.41;57.53;100085.50;7313192;19;158555;-30
2022/01/01 07:24:31;;;;;;;17.45;2.53;;;;;;;21.44;57.96;100090.47;7312139;19;154581;-35
2022/01/01 07:26:56;;;;;;;10.27;1.67;;;;;;;21.42;58.63;100089.78;7317002;19;129140;-37
2022/01/01 07:29:21;;;;;;;9.80;1.60;;;;;;;21.45;57.85;100090.34;7313123;19;137777;-37
2022/01/01 07:31:47;;;;;;;17.05;2.95;;;;;;;21.47;58.00;100088.44;7312923;19;130316;-37
2022/01/01 07:34:12;;;;;;;16.35;2.58;;;;;;;21.41;58.28;100099.41;7312426;19;154632;-34
2022/01/01 07:36:37;;;;;;;13.02;2.17;;;;;;;21.37;58.20;100094.56;7312909;19;156549;-37
2022/01/01 07:39:03;;;;;;;14.52;2.25;;;;;;;21.34;58.27;100095.63;7313063;19;158517;-36
2022/01/01 07:41:28;;;;;;;9.82;1.90;;;;;;;21.28;58.08;100090.91;7316077;19;129830;-31
2022/01/01 07:43:53;;;;;;;21.90;3.95;;;;;;;21.29;58.26;100100.41;7311135;19;129412;-35
2022/01/01 07:46:18;;;;;;;11.68;1.90;;;;;;;21.31;57.53;100093.28;7315524;19;129426;-32
2022/01/01 07:48:44;;;;;;;19.15;2.97;;;;;;;21.31;57.82;100097.66;7312355;19;157252;-36
2022/01/01 07:51:09;;;;;;;14.20;2.22;;;;;;;21.27;57.85;100091.84;7312436;19;157222;-35
2022/01/01 07:53:34;;;;;;;9.27;1.73;;;;;;;21.34;57.92;100093.00;7312564;19;155380;-33
2022/01/01 07:56:00;;;;;;;14.95;2.08;;;;;;;21.33;58.06;100096.59;7312973;19;130145;-36
2022/01/01 07:58:25;;;;;;;13.00;2.05;;;;;;;21.33;57.48;100091.38;7312697;19;158351;-35
2022/01/01 08:00:50;;;;;;;18.52;3.13;;;;;;;21.31;57.74;100103.72;7314054;19;130409;-35
2022/01/01 08:03:15;;;;;;;10.57;2.05;;;;;;;21.27;58.10;100101.50;7312855;19;147108;-36
2022/01/01 08:05:41;;;;;;;20.63;3.17;;;;;;;21.25;58.22;100104.25;7312827;19;131028;-35
2022/01/01 08:08:06;;;;;;;23.20;3.30;;;;;;;21.26;57.83;100103.28;7311157;19;158827;-37
2022/01/01 08:10:32;;;;;;;8.95;1.42;;;;;;;21.28;58.12;100098.75;7312480;19;155354;-34
2022/01/01 08:12:57;;;;;;;12.55;1.98;;;;;;;21.34;58.79;100097.41;7312301;19;129625;-34
2022/01/01 08:15:23;;;;;;;10.38;1.63;;;;;;;21.35;58.09;100105.16;7313261;19;156079;-39
2022/01/01 08:17:48;;;;;;;24.02;3.63;;;;;;;21.34;58.65;100113.09;7312954;19;129435;-36
2022/01/01 08:20:14;;;;;;;34.60;4.63;;;;;;;21.30;57.85;100109.94;7307213;19;129210;-35
2022/01/01 08:22:39;;;;;;;13.23;2.15;;;;;;;21.36;58.40;100111.19;7312951;19;129640;-37
2022/01/01 08:25:05;;;;;;;9.90;1.48;;;;;;;21.36;58.43;100114.66;7313752;19;129457;-36
2022/01/01 08:27:31;;;;;;;13.77;2.38;;;;;;;21.34;58.01;100119.16;7313867;19;129405;-35
2022/01/01 08:29:56;;;;;;;12.25;1.95;;;;;;;21.38;58.26;100120.59;7309588;19;157379;-37
2022/01/01 08:32:21;;;;;;;16.30;2.60;;;;;;;21.38;58.43;100117.13;7309255;19;149016;-36
2022/01/01 08:34:46;;;;;;;16.27;2.70;;;;;;;21.39;58.33;100117.00;7312639;19;129958;-36
2022/01/01 08:37:12;;;;;;;14.93;2.20;;;;;;;21.37;58.25;100124.16;7312480;19;158715;-36
2022/01/01 08:39:37;;;;;;;17.88;3.10;;;;;;;21.39;58.53;100124.84;7311549;19;130671;-37
2022/01/01 08:42:05;;;;;;;16.48;2.35;;;;;;;21.36;58.64;100130.34;7312873;19;129671;-37
2022/01/01 08:44:31;;;;;;;9.65;1.52;;;;;;;21.33;59.35;100135.84;7314195;19;130748;-35
2022/01/01 08:46:57;;;;;;;17.92;3.25;;;;;;;21.34;58.10;100139.25;7312384;19;129646;-35
2022/01/01 08:49:22;;;;;;;13.85;1.88;;;;;;;21.24;58.57;100123.47;7311728;19;129485;-33
2022/01/01 08:51:47;;;;;;;15.27;2.73;;;;;;;21.36;57.92;100143.41;7310337;19;150010;-37
2022/01/01 08:54:14;;;;;;;20.35;3.10;;;;;;;21.29;57.58;100142.25;7310847;19;129110;-33
2022/01/01 08:56:39;;;;;;;;;;;;;;;21.31;59.41;100142.97;7314243;19;130753;-41
2022/01/01 08:59:05;;;;;;;19.58;3.00;;;;;;;21.30;57.93;100148.31;7309875;19;129761;-34
2022/01/01 09:01:30;;;;;;;9.90;1.90;;;;;;;21.23;57.56;100142.75;7313024;19;129577;-36
2022/01/01 09:03:55;;;;;;;15.45;3.10;;;;;;;21.29;58.33;100150.09;7310330;19;150559;-39
2022/01/01 09:06:22;;;;;;;13.55;2.17;;;;;;;21.22;57.64;100141.06;7311256;19;130112;-34
2022/01/01 09:08:48;;;;;;;14.43;2.42;;;;;;;21.28;57.87;100148.44;7311125;19;130481;-36
2022/01/01 09:11:14;;;;;;;14.32;2.40;;;;;;;21.16;58.21;100141.59;7307437;19;156056;-35
2022/01/01 09:13:42;;;;;;;15.40;2.73;;;;;;;21.30;58.31;100170.09;7309219;19;129081;-35
2022/01/01 09:16:11;;;;;;;24.63;3.80;;;;;;;21.33;57.69;100172.44;7309085;19;130306;-39
2022/01/01 09:18:38;;;;;;;11.10;1.92;;;;;;;21.30;58.15;100159.63;7310922;19;130378;-34
2022/01/01 09:21:04;;;;;;;;;;;;;;;21.30;58.91;100169.25;7310535;19;130428;-37
2022/01/01 09:23:29;;;;;;;10.23;1.73;;;;;;;21.29;58.23;100173.63;7310359;19;129666;-35
2022/01/01 09:25:54;;;;;;;10.65;1.98;;;;;;;21.24;58.12;100156.63;7309688;19;158314;-37
2022/01/01 09:28:19;;;;;;;19.15;2.67;;;;;;;21.37;57.93;100175.66;7310525;19;129932;-38
2022/01/01 09:30:45;;;;;;;33.58;5.32;;;;;;;21.26;58.57;100163.44;7308707;19;155208;-38
2022/01/01 09:33:12;;;;;;;20.40;2.97;;;;;;;21.31;58.23;100178.75;7308444;19;154032;-38
2022/01/01 09:35:37;;;;;;;17.40;2.90;;;;;;;21.32;57.52;100178.63;7303542;19;130151;-36
2022/01/01 09:38:02;;;;;;;23.83;3.17;;;;;;;21.27;57.63;100186.00;7311053;19;130384;-36
2022/01/01 09:40:28;;;;;;;14.60;2.05;;;;;;;21.32;58.03;100191.69;7301646;19;155502;-37
2022/01/01 09:42:54;;;;;;;19.10;3.00;;;;;;;21.29;58.44;100197.16;7309840;19;129962;-38
2022/01/01 09:45:20;;;;;;;10.23;2.30;;;;;;;21.27;58.20;100204.31;7311093;19;129343;-38
2022/01/01 09:47:46;;;;;;;12.82;2.33;;;;;;;21.25;57.71;100208.00;7309562;19;155670;-37
2022/01/01 09:50:11;;;;;;;21.93;3.20;;;;;;;21.29;58.08;100209.41;7308684;19;130121;-40
2022/01/01 09:52:37;;;;;;;15.13;2.75;;;;;;;21.27;58.01;100203.50;7301312;19;147750;-38
2022/01/01 09:55:02;;;;;;;11.93;1.63;;;;;;;21.31;57.36;100213.56;7309292;19;130186;-38
2022/01/01 09:57:28;;;;;;;13.57;2.38;;;;;;;21.28;57.91;100213.00;7307763;19;130528;-38
2022/01/01 09:59:53;;;;;;;14.38;2.60;;;;;;;21.31;58.06;100218.81;7307238;19;144677;-37
2022/01/01 10:02:19;;;;;;;13.38;2.60;;;;;;;21.31;58.05;100226.66;7305334;19;154824;-39
2022/01/01 10:04:48;;;;;;;15.73;2.53;;;;;;;21.28;58.04;100208.59;7305136;19;130355;-36
2022/01/01 10:07:13;;;;;;;17.73;2.80;;;;;;;21.31;58.16;100218.81;7310437;19;132352;-38
2022/01/01 10:09:39;;;;;;;11.40;2.05;;;;;;;21.32;57.94;100210.00;7305413;19;129087;-36
2022/01/01 10:12:07;;;;;;;19.55;3.35;;;;;;;21.33;58.72;100216.06;7306496;19;129025;-38
2022/01/01 10:14:43;;;;;;;11.88;2.45;;;;;;;21.35;59.09;100209.78;7308384;19;132885;-38
2022/01/01 10:17:22;;;;;;;19.52;3.25;;;;;;;21.37;58.81;100223.53;7308558;19;129411;-41
2022/01/01 10:19:51;;;;;;;16.52;2.70;;;;;;;21.40;57.86;100220.66;7307630;19;129267;-34
2022/01/01 10:22:21;;;;;;;12.50;2.03;;;;;;;21.35;58.20;100220.25;7310225;19;129137;-37
2022/01/01 10:27:44;;;;;;;12.32;1.77;;;;;;;21.35;59.81;100217.63;7310044;19;129040;-39
2022/01/01 10:30:17;;;;;;;20.60;3.20;;;;;;;21.31;58.34;100216.19;7307422;19;129543;-39
2022/01/01 10:33:09;;;;;;;13.93;2.15;;;;;;;21.29;57.82;100210.25;7307613;19;129029;-38
2022/01/01 10:35:43;;;;;;;7.68;1.48;;;;;;;21.29;57.85;100219.88;7308669;19;130848;-40
2022/01/01 10:38:22;;;;;;;23.23;3.50;;;;;;;21.29;57.56;100220.72;7308038;19;129873;-36
2022/01/01 10:40:52;;;;;;;10.18;2.05;;;;;;;21.30;57.99;100222.38;7309328;19;129619;-37
2022/01/01 10:43:18;;;;;;;16.20;2.55;;;;;;;21.31;58.18;100225.81;7309977;19;129329;-35
2022/01/01 10:45:47;;;;;;;21.95;3.58;;;;;;;21.32;57.57;100230.91;7307601;19;129865;-40
2022/01/01 10:48:39;;;;;;;16.40;2.47;;;;;;;21.34;57.85;100228.19;7309094;19;130432;-37
2022/01/01 10:51:07;;;;;;;14.05;2.33;;;;;;;21.32;57.71;100220.47;7309295;19;129599;-39
2022/01/01 10:53:34;;;;;;;10.55;1.70;;;;;;;21.35;57.95;100225.47;7306982;19;129139;-39
2022/01/01 10:56:20;;;;;;;17.35;2.88;;;;;;;21.35;57.74;100230.69;7308277;19;130539;-41
2022/01/01 10:58:45;;;;;;;13.98;2.53;;;;;;;21.37;57.57;100230.56;7307758;19;130507;-37
2022/01/01 11:01:11;;;;;;;19.75;2.80;;;;;;;21.23;57.09;100218.59;7308439;19;129736;-38
2022/01/01 11:03:41;;;;;;;15.20;2.40;;;;;;;21.34;59.68;100229.03;7308482;19;129395;-38
2022/01/01 11:06:12;;;;;;;16.70;2.65;;;;;;;21.31;57.95;100234.50;7306271;19;130891;-38
2022/01/01 11:08:40;;;;;;;17.13;2.78;;;;;;;21.31;58.59;100233.66;7306275;19;130487;-37
2022/01/01 11:11:06;;;;;;;19.63;3.05;;;;;;;21.37;57.94;100234.00;7307112;19;129929;-36
2022/01/01 11:13:33;;;;;;;16.95;2.50;;;;;;;21.34;58.28;100231.63;7307532;19;130110;-38
2022/01/01 11:15:58;;;;;;;14.45;2.28;;;;;;;21.35;57.86;100233.31;7307895;19;129115;-38
2022/01/01 11:18:24;;;;;;;4.50;1.20;;;;;;;21.31;57.63;100234.50;7307775;19;129838;-38